createdAt,value
2019-02-18T00:00:36.620Z,80.30
2019-02-18T00:01:36.615Z,80.30
2019-02-18T00:02:36.552Z,80.30
2019-02-18T00:03:36.577Z,80.30
2019-02-18T00:04:36.566Z,80.40
2019-02-18T00:05:36.530Z,79.78
2019-02-18T00:06:36.526Z,80.30
2019-02-18T00:07:36.501Z,80.19
2019-02-18T00:08:36.493Z,80.19
2019-02-18T00:09:36.513Z,80.19
2019-02-18T00:10:36.512Z,80.19
2019-02-18T00:11:36.985Z,80.09
2019-02-18T00:12:36.636Z,80.40
2019-02-18T00:13:36.526Z,80.09
2019-02-18T00:14:36.507Z,80.30
2019-02-18T00:15:36.605Z,80.09
2019-02-18T00:16:36.980Z,80.40
2019-02-18T00:17:36.792Z,79.82
2019-02-18T00:18:36.845Z,80.23
2019-02-18T00:19:36.761Z,79.92
2019-02-18T00:20:36.950Z,80.13
2019-02-18T00:21:36.943Z,80.79
2019-02-18T00:22:36.785Z,80.37
2019-02-18T00:23:36.472Z,80.99
2019-02-18T00:24:36.525Z,81.04
2019-02-18T00:25:36.579Z,81.97
2019-02-18T00:26:36.622Z,82.90
2019-02-18T00:27:36.498Z,82.49
2019-02-18T00:28:37.165Z,82.70
2019-02-18T00:29:36.432Z,82.49
2019-02-18T00:30:36.509Z,82.39
2019-02-18T00:31:36.386Z,82.39
2019-02-18T00:32:36.365Z,82.70
2019-02-18T00:33:37.175Z,82.90
2019-02-18T00:34:36.343Z,83.42
2019-02-18T00:35:36.261Z,83.53
2019-02-18T00:36:36.304Z,83.84
2019-02-18T00:37:36.396Z,83.22
2019-02-18T00:38:36.246Z,83.42
2019-02-18T00:39:36.263Z,83.67
2019-02-18T00:40:36.247Z,83.98
2019-02-18T00:41:36.188Z,83.77
2019-02-18T00:42:36.192Z,83.67
2019-02-18T00:43:36.229Z,83.67
2019-02-18T00:44:36.143Z,83.67
2019-02-18T00:45:36.323Z,83.56
2019-02-18T00:46:36.602Z,83.25
2019-02-18T00:47:36.446Z,83.56
2019-02-18T00:48:36.512Z,83.77
2019-02-18T00:49:36.423Z,84.08
2019-02-18T00:50:36.496Z,84.29
2019-02-18T00:51:36.697Z,84.19
2019-02-18T00:52:36.408Z,84.25
2019-02-18T00:53:36.123Z,83.56
2019-02-18T00:54:36.167Z,83.42
2019-02-18T00:55:36.252Z,83.04
2019-02-18T00:56:36.161Z,83.15
2019-02-18T00:57:36.304Z,83.25
2019-02-18T00:58:36.356Z,83.36
2019-02-18T00:59:36.254Z,83.25
2019-02-18T01:00:36.161Z,83.56
2019-02-18T01:01:36.183Z,83.01
2019-02-18T01:02:35.981Z,82.70
2019-02-18T01:03:35.914Z,82.80
2019-02-18T01:04:35.966Z,82.94
2019-02-18T01:05:35.966Z,82.90
2019-02-18T01:06:35.886Z,82.70
2019-02-18T01:07:35.924Z,82.70
2019-02-18T01:08:35.933Z,82.28
2019-02-18T01:09:35.863Z,82.53
2019-02-18T01:10:35.871Z,82.84
2019-02-18T01:11:35.847Z,82.53
2019-02-18T01:12:35.809Z,82.53
2019-02-18T01:13:35.821Z,82.73
2019-02-18T01:14:35.798Z,83.01
2019-02-18T01:15:35.797Z,82.84
2019-02-18T01:16:35.799Z,83.04
2019-02-18T01:17:35.794Z,83.04
2019-02-18T01:18:35.751Z,83.46
2019-02-18T01:19:35.768Z,83.15
2019-02-18T01:20:35.751Z,83.15
2019-02-18T01:21:35.776Z,83.04
2019-02-18T01:22:35.729Z,82.73
2019-02-18T01:23:35.720Z,82.73
2019-02-18T01:24:35.704Z,83.25
2019-02-18T01:25:35.693Z,83.25
2019-02-18T01:26:35.726Z,83.25
2019-02-18T01:27:35.676Z,83.15
2019-02-18T01:28:35.687Z,82.73
2019-02-18T01:29:35.650Z,82.63
2019-02-18T01:30:35.628Z,82.73
2019-02-18T01:31:35.696Z,82.42
2019-02-18T01:32:35.635Z,82.42
2019-02-18T01:33:35.699Z,82.73
2019-02-18T01:34:35.662Z,82.73
2019-02-18T01:35:35.634Z,82.73
2019-02-18T01:36:35.638Z,82.63
2019-02-18T01:37:44.917Z,82.94
2019-02-18T01:38:36.662Z,82.84
2019-02-18T01:39:35.640Z,82.73
2019-02-18T01:40:35.599Z,83.15
2019-02-18T01:41:35.620Z,83.50
2019-02-18T01:42:35.591Z,83.29
2019-02-18T01:43:35.558Z,83.29
2019-02-18T01:44:36.174Z,83.29
2019-02-18T01:45:35.553Z,83.29
2019-02-18T01:46:35.855Z,83.50
2019-02-18T01:47:35.550Z,83.29
2019-02-18T01:48:35.526Z,82.73
2019-02-18T01:49:44.750Z,82.63
2019-02-18T01:50:35.431Z,82.42
2019-02-18T01:51:35.403Z,82.53
2019-02-18T01:52:35.394Z,82.59
2019-02-18T01:53:35.427Z,82.73
2019-02-18T01:54:35.368Z,82.94
2019-02-18T01:55:35.348Z,82.01
2019-02-18T01:56:35.349Z,82.63
2019-02-18T01:57:35.348Z,82.73
2019-02-18T01:58:35.328Z,83.04
2019-02-18T01:59:35.330Z,82.73
2019-02-18T02:00:35.312Z,82.53
2019-02-18T02:01:35.307Z,82.53
2019-02-18T02:02:35.298Z,82.73
2019-02-18T02:03:35.328Z,82.35
2019-02-18T02:04:35.311Z,82.98
2019-02-18T02:05:35.263Z,82.42
2019-02-18T02:06:35.248Z,82.63
2019-02-18T02:07:35.225Z,82.67
2019-02-18T02:08:35.219Z,82.46
2019-02-18T02:09:35.201Z,82.35
2019-02-18T02:10:35.214Z,82.56
2019-02-18T02:11:35.180Z,82.98
2019-02-18T02:12:35.177Z,83.08
2019-02-18T02:13:35.160Z,82.98
2019-02-18T02:14:35.164Z,82.77
2019-02-18T02:15:35.151Z,83.18
2019-02-18T02:16:35.145Z,83.39
2019-02-18T02:17:35.137Z,83.33
2019-02-18T02:18:35.111Z,83.53
2019-02-18T02:19:35.100Z,83.33
2019-02-18T02:20:35.132Z,83.33
2019-02-18T02:21:35.076Z,83.33
2019-02-18T02:22:35.087Z,83.53
2019-02-18T02:23:35.059Z,83.64
2019-02-18T02:24:35.059Z,83.64
2019-02-18T02:25:35.049Z,84.05
2019-02-18T02:26:35.046Z,83.84
2019-02-18T02:27:35.014Z,83.43
2019-02-18T02:28:35.027Z,83.39
2019-02-18T02:29:35.001Z,82.77
2019-02-18T02:30:35.001Z,82.77
2019-02-18T02:31:35.088Z,82.56
2019-02-18T02:32:34.976Z,82.46
2019-02-18T02:33:34.954Z,82.77
2019-02-18T02:34:34.948Z,82.81
2019-02-18T02:35:34.940Z,82.39
2019-02-18T02:36:34.943Z,83.01
2019-02-18T02:37:34.944Z,83.43
2019-02-18T02:38:34.926Z,83.01
2019-02-18T02:39:34.890Z,83.01
2019-02-18T02:40:34.890Z,83.26
2019-02-18T02:41:34.884Z,83.89
2019-02-18T02:42:34.908Z,84.20
2019-02-18T02:43:34.859Z,84.41
2019-02-18T02:44:34.853Z,84.41
2019-02-18T02:45:34.831Z,84.41
2019-02-18T02:46:34.829Z,84.41
2019-02-18T02:47:34.819Z,84.41
2019-02-18T02:48:34.818Z,84.30
2019-02-18T02:49:34.800Z,84.61
2019-02-18T02:50:34.775Z,84.61
2019-02-18T02:51:34.771Z,84.30
2019-02-18T02:52:34.763Z,84.41
2019-02-18T02:53:34.758Z,84.51
2019-02-18T02:54:34.740Z,84.72
2019-02-18T02:55:34.732Z,84.86
2019-02-18T02:56:37.325Z,84.96
2019-02-18T02:57:34.706Z,85.28
2019-02-18T02:58:34.722Z,85.28
2019-02-18T02:59:34.703Z,85.38
2019-02-18T03:00:34.661Z,84.75
2019-02-18T03:01:34.664Z,85.42
2019-02-18T03:02:34.651Z,85.73
2019-02-18T03:03:34.641Z,85.83
2019-02-18T03:04:34.646Z,85.94
2019-02-18T03:05:34.619Z,85.94
2019-02-18T03:06:34.613Z,85.94
2019-02-18T03:07:34.594Z,86.25
2019-02-18T03:08:34.584Z,86.50
2019-02-18T03:09:34.599Z,86.29
2019-02-18T03:10:34.573Z,87.02
2019-02-18T03:11:34.583Z,87.02
2019-02-18T03:12:34.549Z,87.02
2019-02-18T03:13:34.530Z,87.02
2019-02-18T03:14:34.529Z,87.12
2019-02-18T03:15:34.509Z,86.81
2019-02-18T03:16:34.496Z,87.54
2019-02-18T03:17:34.488Z,86.81
2019-02-18T03:18:34.496Z,86.54
2019-02-18T03:19:34.503Z,86.29
2019-02-18T03:20:34.467Z,87.27
2019-02-18T03:21:34.457Z,86.85
2019-02-18T03:22:34.454Z,86.85
2019-02-18T03:23:34.483Z,86.96
2019-02-18T03:24:34.421Z,87.89
2019-02-18T03:25:34.416Z,87.37
2019-02-18T03:26:34.462Z,87.16
2019-02-18T03:27:34.389Z,86.85
2019-02-18T03:28:34.402Z,87.16
2019-02-18T03:29:34.358Z,87.58
2019-02-18T03:30:34.373Z,88.10
2019-02-18T03:31:34.355Z,88.10
2019-02-18T03:32:34.369Z,88.20
2019-02-18T03:33:34.363Z,88.10
2019-02-18T03:34:34.336Z,87.93
2019-02-18T03:35:34.312Z,87.79
2019-02-18T03:36:34.301Z,87.73
2019-02-18T03:37:34.279Z,87.16
2019-02-18T03:38:34.285Z,87.52
2019-02-18T03:39:34.268Z,87.93
2019-02-18T03:40:34.280Z,88.04
2019-02-18T03:41:34.241Z,88.35
2019-02-18T03:42:34.247Z,88.45
2019-02-18T03:43:34.222Z,88.76
2019-02-18T03:44:34.246Z,89.50
2019-02-18T03:45:34.210Z,89.81
2019-02-18T03:46:34.201Z,89.50
2019-02-18T03:47:34.180Z,89.60
2019-02-18T03:48:34.172Z,89.91
2019-02-18T03:49:34.153Z,89.60
2019-02-18T03:50:34.144Z,90.22
2019-02-18T03:51:34.173Z,89.50
2019-02-18T03:52:34.126Z,89.81
2019-02-18T03:53:34.130Z,89.60
2019-02-18T03:54:34.104Z,89.08
2019-02-18T03:55:34.092Z,89.60
2019-02-18T03:56:34.128Z,89.91
2019-02-18T03:57:34.084Z,90.22
2019-02-18T03:58:34.191Z,89.60
2019-02-18T03:59:34.058Z,89.08
2019-02-18T04:00:34.048Z,89.50
2019-02-18T04:01:34.108Z,88.98
2019-02-18T04:02:34.066Z,89.39
2019-02-18T04:03:34.006Z,89.39
2019-02-18T04:04:34.005Z,89.39
2019-02-18T04:05:33.983Z,89.60
2019-02-18T04:06:33.989Z,88.56
2019-02-18T04:07:33.969Z,88.24
2019-02-18T04:08:42.540Z,88.24
2019-02-18T04:09:34.951Z,88.14
2019-02-18T04:10:33.931Z,88.87
2019-02-18T04:11:33.918Z,88.76
2019-02-18T04:12:33.940Z,88.24
2019-02-18T04:13:33.916Z,88.14
2019-02-18T04:14:33.901Z,87.73
2019-02-18T04:15:33.885Z,87.83
2019-02-18T04:16:33.873Z,88.45
2019-02-18T04:17:33.869Z,88.66
2019-02-18T04:18:33.880Z,88.60
2019-02-18T04:19:33.885Z,88.66
2019-02-18T04:20:33.850Z,88.08
2019-02-18T04:21:33.823Z,88.39
2019-02-18T04:22:33.803Z,88.81
2019-02-18T04:23:33.805Z,89.01
2019-02-18T04:24:33.790Z,88.81
2019-02-18T04:25:33.776Z,88.81
2019-02-18T04:26:33.785Z,88.70
2019-02-18T04:27:33.761Z,88.81
2019-02-18T04:28:33.775Z,89.12
2019-02-18T04:29:33.751Z,89.01
2019-02-18T04:30:33.745Z,89.32
2019-02-18T04:31:33.713Z,88.60
2019-02-18T04:32:33.720Z,88.81
2019-02-18T04:33:33.723Z,89.01
2019-02-18T04:34:33.739Z,88.70
2019-02-18T04:35:33.684Z,89.43
2019-02-18T04:36:33.667Z,90.00
2019-02-18T04:37:33.655Z,90.10
2019-02-18T04:38:33.647Z,90.41
2019-02-18T04:39:33.632Z,90.72
2019-02-18T04:40:33.635Z,90.26
2019-02-18T04:41:33.619Z,90.52
2019-02-18T04:42:33.603Z,90.68
2019-02-18T04:43:33.620Z,90.52
2019-02-18T04:44:33.588Z,90.52
2019-02-18T04:45:33.606Z,90.41
2019-02-18T04:46:33.612Z,90.10
2019-02-18T04:47:33.559Z,89.68
2019-02-18T04:48:33.537Z,90.00
2019-02-18T04:49:33.580Z,89.89
2019-02-18T04:50:33.519Z,89.68
2019-02-18T04:51:33.508Z,89.58
2019-02-18T04:52:33.517Z,90.20
2019-02-18T04:53:33.491Z,90.10
2019-02-18T04:54:33.476Z,90.41
2019-02-18T04:55:33.478Z,90.10
2019-02-18T04:56:33.509Z,89.78
2019-02-18T04:57:33.453Z,90.06
2019-02-18T04:58:33.431Z,89.85
2019-02-18T04:59:33.455Z,89.85
2019-02-18T05:00:33.463Z,89.64
2019-02-18T05:01:33.414Z,89.95
2019-02-18T05:02:33.420Z,90.06
2019-02-18T05:03:33.391Z,88.91
2019-02-18T05:04:33.375Z,88.76
2019-02-18T05:05:33.373Z,88.24
2019-02-18T05:06:33.360Z,88.39
2019-02-18T05:07:33.358Z,87.73
2019-02-18T05:08:33.339Z,87.83
2019-02-18T05:09:33.326Z,87.73
2019-02-18T05:10:33.326Z,88.24
2019-02-18T05:11:33.352Z,87.73
2019-02-18T05:12:33.314Z,87.10
2019-02-18T05:13:33.345Z,86.89
2019-02-18T05:14:33.278Z,86.85
2019-02-18T05:15:33.273Z,87.16
2019-02-18T05:16:33.248Z,86.54
2019-02-18T05:17:33.238Z,86.79
2019-02-18T05:18:33.227Z,86.75
2019-02-18T05:19:33.257Z,86.65
2019-02-18T05:20:33.201Z,86.54
2019-02-18T05:21:33.190Z,86.54
2019-02-18T05:22:33.197Z,86.33
2019-02-18T05:23:33.198Z,86.12
2019-02-18T05:24:42.303Z,86.22
2019-02-18T05:25:42.331Z,86.12
2019-02-18T05:26:33.142Z,85.60
2019-02-18T05:27:33.729Z,85.98
2019-02-18T05:28:33.139Z,85.81
2019-02-18T05:29:33.116Z,85.91
2019-02-18T05:30:33.155Z,85.77
2019-02-18T05:31:33.134Z,85.88
2019-02-18T05:32:33.182Z,85.88
2019-02-18T05:33:33.103Z,85.91
2019-02-18T05:34:33.103Z,85.81
2019-02-18T05:35:33.114Z,85.77
2019-02-18T05:36:33.108Z,85.88
2019-02-18T05:37:33.111Z,85.91
2019-02-18T05:38:33.126Z,85.91
2019-02-18T05:39:33.103Z,85.91
2019-02-18T05:40:33.066Z,86.12
2019-02-18T05:41:33.043Z,85.60
2019-02-18T05:42:33.059Z,86.12
2019-02-18T05:43:32.996Z,85.60
2019-02-18T05:44:32.972Z,85.60
2019-02-18T05:45:32.980Z,86.58
2019-02-18T05:46:32.961Z,86.27
2019-02-18T05:47:32.946Z,86.27
2019-02-18T05:48:34.089Z,86.47
2019-02-18T05:49:32.921Z,87.30
2019-02-18T05:50:32.945Z,87.10
2019-02-18T05:51:32.914Z,87.20
2019-02-18T05:52:32.901Z,86.99
2019-02-18T05:53:32.882Z,87.10
2019-02-18T05:54:32.891Z,87.06
2019-02-18T05:55:32.861Z,86.89
2019-02-18T05:56:32.880Z,86.58
2019-02-18T05:57:32.853Z,86.47
2019-02-18T05:58:32.869Z,86.79
2019-02-18T05:59:32.867Z,86.65
2019-02-18T06:00:32.847Z,86.58
2019-02-18T06:01:32.837Z,86.65
2019-02-18T06:02:32.798Z,86.22
2019-02-18T06:03:32.851Z,86.02
2019-02-18T06:04:32.767Z,86.37
2019-02-18T06:05:32.762Z,86.12
2019-02-18T06:06:32.798Z,86.22
2019-02-18T06:07:32.759Z,86.12
2019-02-18T06:08:32.817Z,85.91
2019-02-18T06:09:32.756Z,85.60
2019-02-18T06:10:32.724Z,85.91
2019-02-18T06:11:32.724Z,85.60
2019-02-18T06:12:32.736Z,85.50
2019-02-18T06:13:33.546Z,85.81
2019-02-18T06:14:32.695Z,86.22
2019-02-18T06:15:32.642Z,86.12
2019-02-18T06:16:32.633Z,86.37
2019-02-18T06:17:32.650Z,86.58
2019-02-18T06:18:32.638Z,86.47
2019-02-18T06:19:32.604Z,86.58
2019-02-18T06:20:32.598Z,86.47
2019-02-18T06:21:32.602Z,86.47
2019-02-18T06:22:32.595Z,86.68
2019-02-18T06:23:32.578Z,86.89
2019-02-18T06:24:32.555Z,86.79
2019-02-18T06:25:32.602Z,87.41
2019-02-18T06:26:32.557Z,87.10
2019-02-18T06:27:32.650Z,86.89
2019-02-18T06:28:32.864Z,86.99
2019-02-18T06:29:32.504Z,86.72
2019-02-18T06:30:32.509Z,87.52
2019-02-18T06:31:32.477Z,87.62
2019-02-18T06:32:32.460Z,87.30
2019-02-18T06:33:32.524Z,87.20
2019-02-18T06:34:32.449Z,87.30
2019-02-18T06:35:32.447Z,87.55
2019-02-18T06:36:32.450Z,87.62
2019-02-18T06:37:32.421Z,87.76
2019-02-18T06:38:32.425Z,88.29
2019-02-18T06:39:40.738Z,87.87
2019-02-18T06:40:33.388Z,87.73
2019-02-18T06:41:32.431Z,88.18
2019-02-18T06:42:32.413Z,88.04
2019-02-18T06:43:32.704Z,88.08
2019-02-18T06:44:32.410Z,87.93
2019-02-18T06:45:32.487Z,88.08
2019-02-18T06:46:32.350Z,88.29
2019-02-18T06:47:32.358Z,88.18
2019-02-18T06:48:32.321Z,87.97
2019-02-18T06:49:32.310Z,88.49
2019-02-18T06:50:32.272Z,88.70
2019-02-18T06:51:32.281Z,88.70
2019-02-18T06:52:32.735Z,89.12
2019-02-18T06:53:32.260Z,88.56
2019-02-18T06:54:32.225Z,88.60
2019-02-18T06:56:49.356Z,88.45
2019-02-18T06:57:49.289Z,88.14
2019-02-18T06:58:49.640Z,88.24
2019-02-18T06:59:49.255Z,88.04
2019-02-18T07:00:49.262Z,87.83
2019-02-18T07:01:49.246Z,87.83
2019-02-18T07:02:49.253Z,87.62
2019-02-18T07:03:49.240Z,87.62
2019-02-18T07:04:49.206Z,87.93
2019-02-18T07:05:49.191Z,87.93
2019-02-18T07:06:49.197Z,87.20
2019-02-18T07:07:49.187Z,87.20
2019-02-18T07:08:49.163Z,86.75
2019-02-18T07:09:51.503Z,86.33
2019-02-18T07:10:49.173Z,86.33
2019-02-18T07:11:49.128Z,85.88
2019-02-18T07:12:49.149Z,85.67
2019-02-18T07:13:49.121Z,85.67
2019-02-18T07:14:49.125Z,85.46
2019-02-18T07:15:49.101Z,84.83
2019-02-18T07:16:49.081Z,84.80
2019-02-18T07:17:49.075Z,85.00
2019-02-18T07:18:49.101Z,84.38
2019-02-18T07:19:49.065Z,84.38
2019-02-18T07:20:49.043Z,84.27
2019-02-18T07:21:49.042Z,83.75
2019-02-18T07:22:49.030Z,83.65
2019-02-18T07:23:49.013Z,83.65
2019-02-18T07:24:49.004Z,83.40
2019-02-18T07:25:48.983Z,83.30
2019-02-18T07:26:48.977Z,82.99
2019-02-18T07:27:48.972Z,82.68
2019-02-18T07:28:49.017Z,82.64
2019-02-18T07:29:48.971Z,82.53
2019-02-18T07:30:48.940Z,81.70
2019-02-18T07:31:48.952Z,81.56
2019-02-18T07:32:48.917Z,81.56
2019-02-18T07:33:48.895Z,81.25
2019-02-18T07:34:48.918Z,81.35
2019-02-18T07:35:48.942Z,80.38
2019-02-18T07:36:48.912Z,80.59
2019-02-18T07:37:48.871Z,80.69
2019-02-18T07:38:48.852Z,80.59
2019-02-18T07:39:48.861Z,81.01
2019-02-18T07:40:48.864Z,80.38
2019-02-18T07:41:48.848Z,79.34
2019-02-18T07:42:48.819Z,79.61
2019-02-18T07:43:48.804Z,80.24
2019-02-18T07:44:48.816Z,79.72
2019-02-18T07:45:48.795Z,79.30
2019-02-18T07:46:48.767Z,79.10
2019-02-18T07:47:48.758Z,78.78
2019-02-18T07:48:48.756Z,78.65
2019-02-18T07:49:57.782Z,78.86
2019-02-18T07:50:48.803Z,79.17
2019-02-18T07:51:48.751Z,78.75
2019-02-18T07:52:48.727Z,78.44
2019-02-18T07:53:48.722Z,78.20
2019-02-18T07:54:48.705Z,77.89
2019-02-18T07:55:48.721Z,77.16
2019-02-18T07:56:48.714Z,76.81
2019-02-18T07:57:48.707Z,75.98
2019-02-18T07:58:48.684Z,75.78
2019-02-18T07:59:48.666Z,75.74
2019-02-18T08:00:48.647Z,75.74
2019-02-18T08:01:48.651Z,74.71
2019-02-18T08:02:48.653Z,74.98
2019-02-18T08:03:48.645Z,74.67
2019-02-18T08:04:48.694Z,73.94
2019-02-18T08:05:48.602Z,73.39
2019-02-18T08:06:48.603Z,73.60
2019-02-18T08:07:48.599Z,73.60
2019-02-18T08:08:48.662Z,73.91
2019-02-18T08:09:48.551Z,73.57
2019-02-18T08:10:48.537Z,73.57
2019-02-18T08:11:48.605Z,73.15
2019-02-18T08:12:48.530Z,72.74
2019-02-18T08:13:48.519Z,72.33
2019-02-18T08:14:48.482Z,72.39
2019-02-18T08:15:48.833Z,71.88
2019-02-18T08:16:48.683Z,72.08
2019-02-18T08:17:48.767Z,72.19
2019-02-18T08:18:48.757Z,71.57
2019-02-18T08:19:48.721Z,71.33
2019-02-18T08:20:48.640Z,71.12
2019-02-18T08:21:58.805Z,70.19
2019-02-18T08:22:48.515Z,69.98
2019-02-18T08:23:48.415Z,70.06
2019-02-18T08:24:48.414Z,69.95
2019-02-18T08:25:48.375Z,69.74
2019-02-18T08:26:48.381Z,69.20
2019-02-18T08:27:48.428Z,68.48
2019-02-18T08:28:48.362Z,68.37
2019-02-18T08:29:48.351Z,68.13
2019-02-18T08:30:48.355Z,68.44
2019-02-18T08:31:48.383Z,67.00
2019-02-18T08:32:48.336Z,67.38
2019-02-18T08:33:48.335Z,67.07
2019-02-18T08:34:48.332Z,66.97
2019-02-18T08:35:48.306Z,66.45
2019-02-18T08:36:48.276Z,66.35
2019-02-18T08:37:48.272Z,65.59
2019-02-18T08:38:48.234Z,66.04
2019-02-18T08:39:48.290Z,66.11
2019-02-18T08:40:48.227Z,65.59
2019-02-18T08:41:48.273Z,65.70
2019-02-18T08:42:48.227Z,65.56
2019-02-18T08:43:48.332Z,65.36
2019-02-18T08:44:48.229Z,64.61
2019-02-18T08:45:48.232Z,64.09
2019-02-18T08:46:48.190Z,64.47
2019-02-18T08:47:48.338Z,63.85
2019-02-18T08:48:48.158Z,63.65
2019-02-18T08:49:48.173Z,63.24
2019-02-18T08:50:48.225Z,63.54
2019-02-18T08:51:48.182Z,63.65
2019-02-18T08:52:48.181Z,62.59
2019-02-18T08:53:48.161Z,62.56
2019-02-18T08:54:56.248Z,62.66
2019-02-18T08:55:49.093Z,60.91
2019-02-18T08:56:48.295Z,60.47
2019-02-18T08:57:48.093Z,60.35
2019-02-18T08:58:58.199Z,59.52
2019-02-18T08:59:48.027Z,59.63
2019-02-18T09:00:48.004Z,59.52
2019-02-18T09:01:48.023Z,59.11
2019-02-18T09:02:48.001Z,59.93
2019-02-18T09:03:48.050Z,59.01
2019-02-18T09:04:47.999Z,59.22
2019-02-18T09:05:47.977Z,58.18
2019-02-18T09:06:47.993Z,58.80
2019-02-18T09:07:48.036Z,59.11
2019-02-18T09:08:47.930Z,59.08
2019-02-18T09:09:47.977Z,59.39
2019-02-18T09:10:47.939Z,59.08
2019-02-18T09:11:47.903Z,58.26
2019-02-18T09:12:47.907Z,58.16
2019-02-18T09:13:48.010Z,58.57
2019-02-18T09:14:47.891Z,58.34
2019-02-18T09:15:47.892Z,58.36
2019-02-18T09:16:47.952Z,58.03
2019-02-18T09:17:47.948Z,58.03
2019-02-18T09:18:47.892Z,57.93
2019-02-18T09:19:47.837Z,57.59
2019-02-18T09:20:47.833Z,57.28
2019-02-18T09:21:47.822Z,57.79
2019-02-18T09:22:47.796Z,57.77
2019-02-18T09:25:54.116Z,57.05
2019-02-18T09:26:54.087Z,56.95
2019-02-18T09:27:54.120Z,56.92
2019-02-18T09:28:54.047Z,56.51
2019-02-18T09:29:54.076Z,56.82
2019-02-18T09:30:54.067Z,56.20
2019-02-18T09:31:54.059Z,56.69
2019-02-18T09:32:54.079Z,56.10
2019-02-18T09:33:54.033Z,55.87
2019-02-18T09:35:01.498Z,55.77
2019-02-18T09:35:55.016Z,54.85
2019-02-18T09:36:55.991Z,54.85
2019-02-18T09:37:54.842Z,54.41
2019-02-18T09:39:06.074Z,54.31
2019-02-18T09:39:53.994Z,54.41
2019-02-18T09:40:53.953Z,54.10
2019-02-18T09:41:53.933Z,53.87
2019-02-18T09:43:03.027Z,53.36
2019-02-18T09:43:54.007Z,53.05
2019-02-18T09:46:11.431Z,53.03
2019-02-18T09:47:11.328Z,52.83
2019-02-18T09:48:11.333Z,52.00
2019-02-18T09:49:11.463Z,51.39
2019-02-18T09:50:12.053Z,52.51
2019-02-18T09:51:11.356Z,53.31
2019-02-18T09:52:11.316Z,52.49
2019-02-18T09:53:11.267Z,51.67
2019-02-18T09:54:11.417Z,51.26
2019-02-18T09:55:11.634Z,51.14
2019-02-18T09:56:11.285Z,50.93
2019-02-18T09:57:11.335Z,51.54
2019-02-18T09:58:11.481Z,50.52
2019-02-18T09:59:11.316Z,50.91
2019-02-18T10:00:11.350Z,50.91
2019-02-18T10:01:11.663Z,50.60
2019-02-18T10:02:12.064Z,51.12
2019-02-18T10:03:11.410Z,51.12
2019-02-18T10:04:11.233Z,49.76
2019-02-18T10:05:11.272Z,49.66
2019-02-18T10:06:12.194Z,49.05
2019-02-18T10:07:11.575Z,49.46
2019-02-18T10:08:11.504Z,48.84
2019-02-18T10:09:11.133Z,49.74
2019-02-18T10:10:11.089Z,49.22
2019-02-18T10:11:11.126Z,48.82
2019-02-18T10:12:18.113Z,49.13
2019-02-18T10:13:13.060Z,48.00
2019-02-18T10:14:12.059Z,47.29
2019-02-18T10:15:11.072Z,47.57
2019-02-18T10:16:11.278Z,47.16
2019-02-18T10:17:11.078Z,46.96
2019-02-18T10:18:11.092Z,46.25
2019-02-18T10:19:11.012Z,46.55
2019-02-18T10:20:11.016Z,46.73
2019-02-18T10:21:11.017Z,46.73
2019-02-18T10:22:10.984Z,46.73
2019-02-18T10:23:10.959Z,46.73
2019-02-18T10:24:10.920Z,45.20
2019-02-18T10:25:10.987Z,46.00
2019-02-18T10:26:10.969Z,46.71
2019-02-18T10:27:11.042Z,47.02
2019-02-18T10:28:10.878Z,45.59
2019-02-18T10:29:10.874Z,45.39
2019-02-18T10:30:11.137Z,45.36
2019-02-18T10:31:10.872Z,44.45
2019-02-18T10:32:10.881Z,44.78
2019-02-18T10:33:17.647Z,44.96
2019-02-18T10:34:10.835Z,44.65
2019-02-18T10:35:10.822Z,44.53
2019-02-18T10:36:10.870Z,45.95
2019-02-18T10:37:10.928Z,45.75
2019-02-18T10:38:10.790Z,45.54
2019-02-18T10:39:10.787Z,45.75
2019-02-18T10:40:10.834Z,44.63
2019-02-18T10:41:10.748Z,44.93
2019-02-18T10:42:11.244Z,44.43
2019-02-18T10:43:10.717Z,44.22
2019-02-18T10:44:10.761Z,44.43
2019-02-18T10:45:10.706Z,44.53
2019-02-18T10:46:10.706Z,44.53
2019-02-18T10:47:10.714Z,43.90
2019-02-18T10:48:10.650Z,44.40
2019-02-18T10:49:19.302Z,43.41
2019-02-18T10:50:11.644Z,43.79
2019-02-18T10:51:10.711Z,43.41
2019-02-18T10:52:10.663Z,42.90
2019-02-18T10:53:10.826Z,43.81
2019-02-18T10:54:10.588Z,43.81
2019-02-18T10:55:10.576Z,43.30
2019-02-18T10:56:10.581Z,43.49
2019-02-18T10:57:10.651Z,43.91
2019-02-18T10:58:10.578Z,43.71
2019-02-18T10:59:10.542Z,43.71
2019-02-18T11:00:10.535Z,43.20
2019-02-18T11:01:10.533Z,42.90
2019-02-18T11:02:10.500Z,43.79
2019-02-18T11:03:10.581Z,43.69
2019-02-18T11:04:10.537Z,43.49
2019-02-18T11:05:10.516Z,42.88
2019-02-18T11:06:10.627Z,44.10
2019-02-18T11:07:10.532Z,42.68
2019-02-18T11:08:10.782Z,43.38
2019-02-18T11:09:10.425Z,42.88
2019-02-18T11:10:10.434Z,43.18
2019-02-18T11:11:17.013Z,42.77
2019-02-18T11:12:11.415Z,42.86
2019-02-18T11:13:10.466Z,42.88
2019-02-18T11:14:10.396Z,43.18
2019-02-18T11:15:10.613Z,43.26
2019-02-18T11:16:10.386Z,42.96
2019-02-18T11:17:10.341Z,43.26
2019-02-18T11:18:10.347Z,42.55
2019-02-18T11:19:10.327Z,42.55
2019-02-18T11:20:10.340Z,42.76
2019-02-18T11:21:10.350Z,43.16
2019-02-18T11:22:10.303Z,42.74
2019-02-18T11:23:10.398Z,43.24
2019-02-18T11:24:10.277Z,42.94
2019-02-18T11:25:10.251Z,42.83
2019-02-18T11:26:10.288Z,42.53
2019-02-18T11:27:10.233Z,42.33
2019-02-18T11:28:10.214Z,42.94
2019-02-18T11:29:10.263Z,42.94
2019-02-18T11:30:10.289Z,42.83
2019-02-18T11:31:10.219Z,42.74
2019-02-18T11:32:10.202Z,41.61
2019-02-18T11:33:10.188Z,42.43
2019-02-18T11:34:10.164Z,42.22
2019-02-18T11:35:10.176Z,42.31
2019-02-18T11:36:10.346Z,42.02
2019-02-18T11:37:10.184Z,42.22
2019-02-18T11:38:10.130Z,42.74
2019-02-18T11:39:10.129Z,42.33
2019-02-18T11:40:10.102Z,42.82
2019-02-18T11:41:10.096Z,42.94
2019-02-18T11:42:10.075Z,43.04
2019-02-18T11:43:10.093Z,43.04
2019-02-18T11:44:10.207Z,43.02
2019-02-18T11:45:10.074Z,41.92
2019-02-18T11:46:10.119Z,41.52
2019-02-18T11:47:10.025Z,41.52
2019-02-18T11:48:10.029Z,42.51
2019-02-18T11:49:10.410Z,42.51
2019-02-18T11:50:09.984Z,42.51
2019-02-18T11:51:09.984Z,41.29
2019-02-18T11:52:10.028Z,41.29
2019-02-18T11:53:09.958Z,41.09
2019-02-18T11:54:09.988Z,41.70
2019-02-18T11:55:09.937Z,41.80
2019-02-18T11:56:09.934Z,40.58
2019-02-18T11:57:09.953Z,40.99
2019-02-18T11:58:09.889Z,40.48
2019-02-18T11:59:09.885Z,41.19
2019-02-18T12:00:09.898Z,40.78
2019-02-18T12:01:09.897Z,40.88
2019-02-18T12:02:09.896Z,40.78
2019-02-18T12:03:12.615Z,41.90
2019-02-18T12:04:09.850Z,41.90
2019-02-18T12:05:09.837Z,40.99
2019-02-18T12:06:09.821Z,41.29
2019-02-18T12:07:09.804Z,41.39
2019-02-18T12:08:09.862Z,40.99
2019-02-18T12:09:09.782Z,40.48
2019-02-18T12:10:09.768Z,40.99
2019-02-18T12:11:09.799Z,41.29
2019-02-18T12:12:09.764Z,41.19
2019-02-18T12:13:09.759Z,41.19
2019-02-18T12:14:09.823Z,41.49
2019-02-18T12:15:09.733Z,41.70
2019-02-18T12:16:09.724Z,42.08
2019-02-18T12:17:20.074Z,41.47
2019-02-18T12:18:10.800Z,41.78
2019-02-18T12:19:09.726Z,41.38
2019-02-18T12:20:09.710Z,41.07
2019-02-18T12:21:09.703Z,41.78
2019-02-18T12:22:11.965Z,41.68
2019-02-18T12:23:10.589Z,41.47
2019-02-18T12:24:09.687Z,41.17
2019-02-18T12:25:09.639Z,41.27
2019-02-18T12:26:09.644Z,40.86
2019-02-18T12:27:09.596Z,40.44
2019-02-18T12:28:09.634Z,40.16
2019-02-18T12:29:09.621Z,39.95
2019-02-18T12:30:09.601Z,39.73
2019-02-18T12:31:09.558Z,40.16
2019-02-18T12:32:09.549Z,40.64
2019-02-18T12:33:09.521Z,40.14
2019-02-18T12:34:09.541Z,40.14
2019-02-18T12:35:09.522Z,39.32
2019-02-18T12:36:09.499Z,39.53
2019-02-18T12:37:09.612Z,40.32
2019-02-18T12:38:09.496Z,39.53
2019-02-18T12:39:09.472Z,39.51
2019-02-18T12:40:09.456Z,40.14
2019-02-18T12:41:09.490Z,40.12
2019-02-18T12:42:09.438Z,39.62
2019-02-18T12:43:09.450Z,40.12
2019-02-18T12:44:09.396Z,39.32
2019-02-18T12:45:09.443Z,39.61
2019-02-18T12:46:15.887Z,39.40
2019-02-18T12:47:10.388Z,39.30
2019-02-18T12:48:09.371Z,38.81
2019-02-18T12:49:09.342Z,40.32
2019-02-18T12:50:09.354Z,39.53
2019-02-18T12:51:09.390Z,39.10
2019-02-18T12:52:09.442Z,39.40
2019-02-18T12:53:09.418Z,39.30
2019-02-18T12:54:09.315Z,39.20
2019-02-18T12:55:09.390Z,40.01
2019-02-18T12:56:09.285Z,40.01
2019-02-18T12:57:09.282Z,39.00